createdAt,value
2018-02-13T00:01:48.508Z,125.90
2018-02-13T00:04:16.309Z,125.75
2018-02-13T00:06:43.886Z,125.47
2018-02-13T00:09:11.476Z,125.40
2018-02-13T00:11:39.822Z,125.22
2018-02-13T00:14:07.385Z,124.35
2018-02-13T00:16:35.142Z,123.55
2018-02-13T00:19:03.026Z,115.68
2018-02-13T00:21:30.825Z,119.37
2018-02-13T00:23:58.665Z,106.20
2018-02-13T00:26:26.435Z,112.37
2018-02-13T00:28:54.310Z,110.70
2018-02-13T00:31:22.122Z,107.25
2018-02-13T00:33:49.678Z,111.07
2018-02-13T00:36:17.477Z,119.28
2018-02-13T00:38:45.046Z,126.18
2018-02-13T00:41:12.865Z,117.18
2018-02-13T00:43:40.726Z,124.28
2018-02-13T00:46:08.277Z,129.05
2018-02-13T00:48:35.847Z,129.75
2018-02-13T00:51:03.468Z,130.57
2018-02-13T00:53:31.525Z,147.37
2018-02-13T00:55:59.332Z,141.55
2018-02-13T00:58:28.201Z,137.25
2018-02-13T01:00:56.947Z,140.68
2018-02-13T01:03:24.574Z,141.25
2018-02-13T01:05:52.230Z,111.18
2018-02-13T01:08:19.956Z,101.60
2018-02-13T01:10:48.113Z,92.68
2018-02-13T01:13:15.782Z,99.65
2018-02-13T01:15:43.492Z,89.95
2018-02-13T01:18:11.103Z,82.70
2018-02-13T01:20:39.564Z,85.32
2018-02-13T01:23:08.184Z,88.15
2018-02-13T01:25:36.241Z,93.37
2018-02-13T01:28:03.889Z,101.65
2018-02-13T01:30:31.487Z,105.05
2018-02-13T01:32:59.634Z,126.95
2018-02-13T01:35:27.293Z,127.75
2018-02-13T01:37:55.043Z,125.18
2018-02-13T01:40:23.362Z,110.70
2018-02-13T01:42:51.216Z,97.12
2018-02-13T01:45:19.308Z,94.50
2018-02-13T01:47:47.134Z,71.10
2018-02-13T01:50:25.558Z,66.50
2018-02-13T01:52:54.458Z,53.10
2018-02-13T01:55:22.126Z,63.08
2018-02-13T01:57:50.540Z,62.22
2018-02-13T02:00:18.154Z,53.87
2018-02-13T02:02:45.810Z,46.78
2018-02-13T02:05:13.410Z,31.10
2018-02-13T02:07:41.443Z,25.85
2018-02-13T02:10:10.764Z,40.88
2018-02-13T02:12:38.404Z,35.10
2018-02-13T02:15:06.780Z,31.08
2018-02-13T02:17:34.455Z,35.85
2018-02-13T02:20:02.120Z,36.67
2018-02-13T02:22:29.748Z,29.02
2018-02-13T02:24:57.455Z,33.13
2018-02-13T02:27:25.837Z,30.12
2018-02-13T02:29:53.764Z,29.73
2018-02-13T02:32:21.429Z,27.60
2018-02-13T02:34:49.255Z,28.15
2018-02-13T02:37:16.863Z,27.37
2018-02-13T02:39:44.463Z,34.70
2018-02-13T02:42:12.086Z,34.30
2018-02-13T02:44:40.145Z,36.58
2018-02-13T02:47:07.763Z,35.88
2018-02-13T02:49:35.404Z,36.88
2018-02-13T02:52:03.019Z,39.00
2018-02-13T02:54:30.597Z,41.03
2018-02-13T02:56:58.229Z,43.67
2018-02-13T02:59:25.863Z,47.47
2018-02-13T03:01:53.511Z,44.97
2018-02-13T03:04:22.177Z,43.10
2018-02-13T03:06:49.792Z,45.97
2018-02-13T03:09:17.355Z,48.08
2018-02-13T03:11:45.050Z,48.22
2018-02-13T03:14:13.393Z,45.70
2018-02-13T03:16:41.755Z,43.85
2018-02-13T03:19:09.389Z,43.42
2018-02-13T03:21:37.381Z,43.30
2018-02-13T03:24:05.100Z,41.15
2018-02-13T03:26:32.905Z,45.50
2018-02-13T03:29:00.539Z,48.72
2018-02-13T03:31:28.151Z,44.40
2018-02-13T03:33:57.115Z,53.87
2018-02-13T03:36:25.650Z,54.53
2018-02-13T03:38:53.704Z,45.72
2018-02-13T03:41:21.588Z,40.85
2018-02-13T03:43:49.228Z,46.53
2018-02-13T03:46:17.619Z,45.15
2018-02-13T03:48:45.218Z,46.55
2018-02-13T03:51:12.897Z,46.75
2018-02-13T03:53:40.574Z,41.00
2018-02-13T03:56:08.247Z,37.70
2018-02-13T03:58:35.853Z,34.67
2018-02-13T04:01:03.445Z,35.45
2018-02-13T04:03:31.060Z,39.22
2018-02-13T04:05:59.786Z,38.70
2018-02-13T04:08:27.900Z,37.97
2018-02-13T04:10:55.507Z,38.13
2018-02-13T04:13:23.117Z,40.75
2018-02-13T04:15:51.578Z,46.70
2018-02-13T04:18:19.153Z,47.80
2018-02-13T04:20:46.782Z,45.70
2018-02-13T04:23:15.056Z,48.83
2018-02-13T04:25:42.907Z,54.45
2018-02-13T04:28:10.949Z,50.92
2018-02-13T04:30:39.065Z,56.50
2018-02-13T04:33:07.136Z,52.33
2018-02-13T04:35:35.540Z,51.92
2018-02-13T04:38:04.488Z,52.78
2018-02-13T04:40:33.287Z,42.97
2018-02-13T04:43:02.171Z,45.08
2018-02-13T04:45:30.019Z,42.22
2018-02-13T04:47:59.029Z,39.92
2018-02-13T04:50:26.956Z,35.40
2018-02-13T04:52:55.011Z,37.63
2018-02-13T04:55:22.694Z,32.03
2018-02-13T04:57:50.565Z,32.90
2018-02-13T05:00:19.257Z,32.90
2018-02-13T05:02:47.726Z,31.77
2018-02-13T05:05:15.534Z,26.40
2018-02-13T05:07:43.343Z,28.80
2018-02-13T05:10:11.078Z,31.27
2018-02-13T05:12:39.638Z,26.40
2018-02-13T05:15:07.461Z,30.70
2018-02-13T05:17:35.336Z,25.40
2018-02-13T05:20:03.052Z,25.45
2018-02-13T05:22:30.771Z,26.83
2018-02-13T05:24:58.413Z,26.98
2018-02-13T05:27:26.369Z,23.80
2018-02-13T05:29:53.978Z,32.42
2018-02-13T05:32:22.609Z,28.85
2018-02-13T05:34:50.225Z,24.55
2018-02-13T05:37:17.834Z,28.05
2018-02-13T05:39:45.647Z,24.10
2018-02-13T05:42:13.184Z,22.05
2018-02-13T05:44:41.028Z,22.87
2018-02-13T05:47:08.965Z,19.90
2018-02-13T05:49:36.526Z,19.77
2018-02-13T05:52:04.320Z,24.30
2018-02-13T05:54:32.066Z,24.60
2018-02-13T05:56:59.652Z,26.33
2018-02-13T05:59:27.213Z,26.10
2018-02-13T06:01:54.835Z,25.23
2018-02-13T06:04:22.364Z,27.87
2018-02-13T06:06:49.935Z,21.67
2018-02-13T06:09:17.454Z,22.80
2018-02-13T06:11:45.023Z,25.75
2018-02-13T06:14:12.627Z,24.92
2018-02-13T06:16:40.198Z,23.77
2018-02-13T06:19:07.753Z,20.73
2018-02-13T06:21:35.281Z,17.27
2018-02-13T06:24:02.827Z,19.08
2018-02-13T06:26:30.483Z,19.83
2018-02-13T06:28:57.991Z,22.08
2018-02-13T06:31:25.536Z,25.33
2018-02-13T06:33:53.094Z,24.37
2018-02-13T06:36:20.646Z,20.40
2018-02-13T06:38:48.431Z,26.60
2018-02-13T06:41:16.988Z,25.62
2018-02-13T06:43:44.517Z,28.02
2018-02-13T06:46:12.038Z,24.17
2018-02-13T06:48:39.566Z,23.98
2018-02-13T06:51:07.108Z,24.02
2018-02-13T06:53:34.669Z,25.27
2018-02-13T06:56:02.230Z,27.35
2018-02-13T06:58:30.037Z,25.75
2018-02-13T07:00:57.591Z,27.33
2018-02-13T07:03:25.127Z,25.80
2018-02-13T07:05:53.558Z,24.50
2018-02-13T07:08:21.435Z,27.92
2018-02-13T07:10:48.970Z,26.80
2018-02-13T07:13:16.612Z,26.30
2018-02-13T07:15:44.173Z,30.12
2018-02-13T07:18:11.948Z,24.87
2018-02-13T07:20:39.506Z,22.80
2018-02-13T07:23:07.095Z,28.40
2018-02-13T07:25:34.733Z,25.08
2018-02-13T07:28:02.328Z,27.60
2018-02-13T07:30:30.248Z,29.65
2018-02-13T07:32:57.769Z,28.33
2018-02-13T07:35:25.308Z,27.45
2018-02-13T07:37:52.855Z,26.45
2018-02-13T07:40:20.730Z,25.60
2018-02-13T07:42:48.299Z,22.60
2018-02-13T07:45:15.891Z,22.27
2018-02-13T07:47:43.451Z,25.43
2018-02-13T07:50:11.285Z,19.90
2018-02-13T07:52:38.878Z,23.08
2018-02-13T07:55:06.665Z,24.40
2018-02-13T07:57:34.443Z,25.10
2018-02-13T08:00:02.237Z,26.80
2018-02-13T08:02:29.760Z,24.20
2018-02-13T08:04:57.299Z,27.40
2018-02-13T08:07:24.851Z,26.08
2018-02-13T08:09:52.399Z,27.37
2018-02-13T08:12:19.939Z,28.55
2018-02-13T08:14:47.468Z,26.40
2018-02-13T08:17:14.996Z,24.90
2018-02-13T08:19:42.554Z,26.12
2018-02-13T08:22:10.080Z,28.40
2018-02-13T08:24:38.453Z,30.95
2018-02-13T08:27:05.977Z,28.73
2018-02-13T08:29:33.726Z,30.83
2018-02-13T08:32:01.340Z,32.30
2018-02-13T08:34:28.877Z,32.30
2018-02-13T08:36:56.769Z,27.07
2018-02-13T08:39:24.295Z,30.37
2018-02-13T08:41:51.810Z,25.77
2018-02-13T08:44:19.356Z,26.60
2018-02-13T08:46:46.884Z,23.00
2018-02-13T08:49:14.431Z,22.08
2018-02-13T08:51:41.949Z,24.70
2018-02-13T08:54:09.756Z,22.30
2018-02-13T08:56:37.289Z,27.33
2018-02-13T08:59:05.354Z,24.93
2018-02-13T09:01:33.203Z,18.70
2018-02-13T09:04:00.744Z,17.95
2018-02-13T09:06:28.701Z,21.47
2018-02-13T09:08:56.887Z,20.57
2018-02-13T09:11:24.428Z,22.00
2018-02-13T09:13:51.990Z,16.50
2018-02-13T09:16:19.516Z,19.00
2018-02-13T09:18:47.040Z,19.13
2018-02-13T09:21:14.558Z,20.43
2018-02-13T09:23:43.040Z,17.27
2018-02-13T09:26:10.605Z,19.87
2018-02-13T09:28:38.164Z,17.57
2018-02-13T09:31:06.043Z,19.40
2018-02-13T09:33:33.812Z,19.40
2018-02-13T09:36:01.343Z,14.83
2018-02-13T09:38:28.885Z,15.43
2018-02-13T09:40:56.432Z,17.97
2018-02-13T09:43:24.030Z,18.40
2018-02-13T09:45:51.638Z,19.03
2018-02-13T09:48:19.201Z,21.20
2018-02-13T09:50:46.717Z,22.70
2018-02-13T09:53:14.228Z,22.00
2018-02-13T09:55:41.782Z,21.00
2018-02-13T09:58:09.340Z,20.27
2018-02-13T10:00:36.906Z,20.43
2018-02-13T10:03:04.458Z,19.90
2018-02-13T10:05:31.990Z,17.67
2018-02-13T10:07:59.507Z,21.53
2018-02-13T10:10:27.264Z,21.60
2018-02-13T10:12:54.821Z,22.27
2018-02-13T10:15:22.339Z,22.43
2018-02-13T10:17:50.148Z,20.40
2018-02-13T10:20:17.678Z,21.23
2018-02-13T10:22:45.218Z,21.87
2018-02-13T10:25:12.769Z,19.77
2018-02-13T10:27:40.514Z,20.90
2018-02-13T10:30:08.177Z,21.70
2018-02-13T10:32:35.735Z,21.10
2018-02-13T10:35:03.245Z,20.83
2018-02-13T10:37:30.997Z,17.13
2018-02-13T10:39:58.729Z,20.47
2018-02-13T10:42:26.274Z,21.83
2018-02-13T10:44:53.810Z,19.57
2018-02-13T10:47:21.344Z,20.37
2018-02-13T10:49:49.726Z,21.30
2018-02-13T10:52:17.284Z,21.07
2018-02-13T10:54:44.825Z,22.23
2018-02-13T10:57:12.335Z,22.90
2018-02-13T10:59:40.101Z,23.00
2018-02-13T11:02:13.084Z,22.17
2018-02-13T11:04:40.825Z,22.57
2018-02-13T11:07:08.490Z,24.60
2018-02-13T11:09:36.010Z,21.93
2018-02-13T11:12:03.871Z,22.80
2018-02-13T11:14:32.359Z,21.77
2018-02-13T11:16:59.894Z,22.33
2018-02-13T11:19:27.467Z,20.70
2018-02-13T11:21:55.356Z,22.23
2018-02-13T11:24:22.902Z,21.73
2018-02-13T11:26:50.436Z,23.50
2018-02-13T11:29:17.953Z,22.05
2018-02-13T11:31:45.504Z,21.42
2018-02-13T11:34:13.064Z,20.95
2018-02-13T11:36:40.910Z,22.63
2018-02-13T11:39:08.496Z,23.85
2018-02-13T11:41:36.025Z,19.20
2018-02-13T11:44:03.570Z,18.97
2018-02-13T11:46:31.107Z,22.75
2018-02-13T11:48:58.631Z,23.73
2018-02-13T11:51:26.195Z,20.47
2018-02-13T11:53:54.548Z,22.87
2018-02-13T11:56:22.078Z,22.73
2018-02-13T11:58:49.611Z,21.03
2018-02-13T12:01:17.177Z,22.60
2018-02-13T12:03:44.981Z,22.37
2018-02-13T12:06:12.494Z,19.33
2018-02-13T12:08:40.046Z,23.20
2018-02-13T12:11:07.609Z,24.00
2018-02-13T12:13:35.166Z,20.83
2018-02-13T12:16:03.599Z,20.97
2018-02-13T12:18:31.172Z,21.30
2018-02-13T12:20:58.734Z,21.03
2018-02-13T12:23:26.289Z,21.67
2018-02-13T12:25:53.855Z,20.07
2018-02-13T12:28:21.382Z,21.10
2018-02-13T12:30:48.955Z,20.27
2018-02-13T12:33:16.734Z,20.60
2018-02-13T12:35:44.274Z,23.33
2018-02-13T12:38:11.809Z,23.87
2018-02-13T12:40:39.621Z,22.43
2018-02-13T12:43:07.172Z,23.73
2018-02-13T12:45:34.733Z,22.13
2018-02-13T12:48:03.078Z,20.17
2018-02-13T12:50:31.120Z,21.67
2018-02-13T12:52:59.344Z,22.67
2018-02-13T12:55:27.558Z,19.03
2018-02-13T12:57:55.292Z,22.83
2018-02-13T13:00:23.618Z,21.47
2018-02-13T13:02:51.184Z,23.23
2018-02-13T13:05:18.757Z,25.67
2018-02-13T13:07:46.313Z,23.57
2018-02-13T13:10:13.887Z,21.47
2018-02-13T13:12:41.440Z,22.50
2018-02-13T13:15:09.278Z,21.93
2018-02-13T13:17:36.863Z,23.90
2018-02-13T13:20:04.624Z,23.90
2018-02-13T13:22:32.155Z,22.70
2018-02-13T13:24:59.694Z,23.60
2018-02-13T13:27:27.423Z,26.37
2018-02-13T13:29:55.233Z,22.03
2018-02-13T13:32:22.841Z,28.60
2018-02-13T13:38:11.727Z,22.50
2018-02-13T13:40:39.569Z,23.77
2018-02-13T13:43:07.089Z,23.93
2018-02-13T13:45:34.617Z,20.27
2018-02-13T13:48:02.172Z,23.25
2018-02-13T13:50:29.774Z,22.37
2018-02-13T13:52:57.402Z,23.52
2018-02-13T13:55:25.029Z,21.50
2018-02-13T13:57:52.626Z,26.48
2018-02-13T14:00:20.255Z,22.35
2018-02-13T14:02:47.823Z,26.73
2018-02-13T14:05:15.513Z,24.77
2018-02-13T14:07:43.044Z,23.73
2018-02-13T14:10:10.579Z,23.00
2018-02-13T14:12:38.111Z,29.67
2018-02-13T14:15:05.903Z,27.13
2018-02-13T14:17:33.997Z,28.20
2018-02-13T14:20:01.560Z,24.48
2018-02-13T14:22:29.140Z,21.00
2018-02-13T14:24:56.748Z,26.27
2018-02-13T14:27:24.280Z,28.52
2018-02-13T14:29:51.885Z,28.40
2018-02-13T14:32:19.423Z,30.12
2018-02-13T14:34:46.960Z,24.27
2018-02-13T14:37:14.670Z,28.50
2018-02-13T14:39:42.207Z,27.52
2018-02-13T14:42:09.770Z,30.40
2018-02-13T14:44:37.384Z,28.50
2018-02-13T14:47:05.631Z,24.52
2018-02-13T14:49:33.470Z,23.08
2018-02-13T14:52:01.063Z,29.58
2018-02-13T14:54:28.613Z,27.80
2018-02-13T14:56:56.796Z,25.35
2018-02-13T14:59:24.528Z,26.83
2018-02-13T15:01:52.123Z,29.75
2018-02-13T15:04:20.174Z,26.33
2018-02-13T15:06:48.168Z,28.20
2018-02-13T15:09:15.709Z,36.45
2018-02-13T15:11:43.472Z,30.92
2018-02-13T15:14:11.575Z,33.25
2018-02-13T15:16:40.013Z,33.85
2018-02-13T15:19:07.659Z,33.50
2018-02-13T15:21:35.214Z,32.05
2018-02-13T15:24:03.149Z,27.40
2018-02-13T15:26:30.789Z,29.08
2018-02-13T15:28:58.592Z,28.20
2018-02-13T15:31:26.218Z,28.80
2018-02-13T15:33:53.803Z,30.58
2018-02-13T15:36:21.604Z,28.15
2018-02-13T15:38:49.419Z,26.45
2018-02-13T15:41:17.066Z,28.98
2018-02-13T15:43:44.845Z,33.22
2018-02-13T15:46:12.448Z,28.23
2018-02-13T15:48:40.220Z,29.05
2018-02-13T15:51:07.820Z,33.08
2018-02-13T15:53:35.508Z,32.38
2018-02-13T15:56:03.366Z,33.47
2018-02-13T15:58:30.927Z,30.10
2018-02-13T16:00:58.576Z,31.15
2018-02-13T16:03:26.269Z,29.23
2018-02-13T16:05:53.977Z,27.83
2018-02-13T16:08:21.774Z,26.58
2018-02-13T16:10:49.326Z,28.35
2018-02-13T16:13:16.904Z,27.15
2018-02-13T16:15:44.486Z,29.75
2018-02-13T16:18:12.901Z,27.45
2018-02-13T16:20:40.537Z,29.35
2018-02-13T16:23:08.406Z,24.70
2018-02-13T16:25:36.375Z,25.05
2018-02-13T16:28:04.500Z,24.30
2018-02-13T16:30:32.111Z,24.37
2018-02-13T16:32:59.906Z,24.73
2018-02-13T16:35:27.748Z,27.08
2018-02-13T16:37:55.548Z,21.50
2018-02-13T16:40:23.183Z,19.25
2018-02-13T16:42:50.774Z,23.30
2018-02-13T16:45:18.642Z,22.27
2018-02-13T16:47:46.408Z,20.52
2018-02-13T16:50:15.039Z,20.65
2018-02-13T16:52:42.629Z,19.67
2018-02-13T16:55:10.432Z,24.70
2018-02-13T16:57:39.017Z,22.25
2018-02-13T17:00:06.652Z,24.00
2018-02-13T17:02:34.594Z,23.98
2018-02-13T17:05:02.217Z,27.25
2018-02-13T17:07:29.880Z,24.10
2018-02-13T17:09:57.581Z,29.65
2018-02-13T17:12:25.205Z,25.10
2018-02-13T17:14:52.982Z,26.27
2018-02-13T17:17:20.808Z,23.85
2018-02-13T17:19:48.558Z,24.33
2018-02-13T17:22:16.206Z,27.65
2018-02-13T17:24:44.017Z,28.60
2018-02-13T17:27:11.631Z,27.83
2018-02-13T17:29:39.240Z,27.40
2018-02-13T17:32:07.033Z,24.65
2018-02-13T17:34:34.668Z,23.27
2018-02-13T17:37:02.494Z,24.37
2018-02-13T17:39:30.131Z,22.50
2018-02-13T17:41:57.701Z,24.48
2018-02-13T17:44:25.289Z,24.20
2018-02-13T17:46:52.900Z,26.58
2018-02-13T17:49:20.685Z,24.33
2018-02-13T17:51:48.446Z,27.85
2018-02-13T17:54:16.035Z,25.83
2018-02-13T17:56:43.683Z,28.20
2018-02-13T17:59:11.313Z,28.17
2018-02-13T18:01:38.899Z,28.55
2018-02-13T18:04:06.473Z,28.30
2018-02-13T18:06:34.076Z,24.52
2018-02-13T18:09:01.715Z,23.33
2018-02-13T18:11:29.327Z,25.50
2018-02-13T18:13:57.135Z,21.48
2018-02-13T18:16:24.891Z,20.90
2018-02-13T18:18:52.480Z,24.90
2018-02-13T18:21:20.233Z,21.15
2018-02-13T18:23:47.844Z,22.40
2018-02-13T18:26:15.652Z,21.02
2018-02-13T18:28:43.440Z,21.87
2018-02-13T18:31:11.049Z,23.65
2018-02-13T18:33:38.640Z,20.90
2018-02-13T18:36:06.228Z,23.75
2018-02-13T18:38:33.818Z,23.62
2018-02-13T18:41:02.087Z,20.83
2018-02-13T18:43:30.369Z,22.92
2018-02-13T18:45:59.016Z,20.42
2018-02-13T18:48:26.610Z,22.52
2018-02-13T18:50:54.191Z,23.02
2018-02-13T18:53:22.118Z,19.30
2018-02-13T18:55:50.349Z,20.17
2018-02-13T18:58:18.074Z,20.80
2018-02-13T19:00:46.079Z,18.27
2018-02-13T19:03:13.724Z,18.52
2018-02-13T19:05:41.496Z,18.92
2018-02-13T19:08:10.843Z,18.40
2018-02-13T19:10:38.458Z,20.05
2018-02-13T19:13:06.223Z,20.07
2018-02-13T19:15:33.869Z,20.65
2018-02-13T19:18:01.496Z,18.00
2018-02-13T19:20:29.185Z,17.37
2018-02-13T19:22:56.978Z,21.30
2018-02-13T19:25:24.571Z,21.50
2018-02-13T19:27:52.181Z,23.90
2018-02-13T19:30:19.991Z,19.37
2018-02-13T19:32:49.362Z,21.00
2018-02-13T19:35:17.401Z,19.27
2018-02-13T19:37:46.910Z,19.35
2018-02-13T19:40:17.046Z,18.17
2018-02-13T19:42:47.374Z,17.20
2018-02-13T19:45:16.664Z,19.43
2018-02-13T19:47:45.976Z,18.53
2018-02-13T19:50:15.620Z,17.13
2018-02-13T19:52:44.677Z,17.57
2018-02-13T19:55:14.130Z,17.98
2018-02-13T19:57:43.381Z,18.35
2018-02-13T20:00:12.305Z,19.30
2018-02-13T20:02:40.871Z,16.67
2018-02-13T20:05:09.271Z,17.10
2018-02-13T20:07:37.658Z,18.35
2018-02-13T20:10:06.315Z,16.52
2018-02-13T20:12:35.578Z,18.73
2018-02-13T20:15:05.175Z,16.20
2018-02-13T20:17:33.774Z,15.93
2018-02-13T20:20:01.957Z,18.23
2018-02-13T20:22:30.482Z,18.12
2018-02-13T20:24:58.822Z,21.20
2018-02-13T20:27:27.211Z,21.12
2018-02-13T20:29:55.714Z,22.27
2018-02-13T20:32:23.689Z,20.90
2018-02-13T20:34:51.499Z,19.90
2018-02-13T20:37:19.383Z,24.27
2018-02-13T20:39:49.159Z,19.47
2018-02-13T20:42:17.155Z,16.30
2018-02-13T20:44:46.043Z,15.73
2018-02-13T20:47:13.995Z,20.03
2018-02-13T20:49:41.799Z,18.15
2018-02-13T20:52:09.549Z,17.37
2018-02-13T20:54:38.886Z,14.60
2018-02-13T20:57:06.915Z,17.42
2018-02-13T20:59:34.748Z,17.40
2018-02-13T21:02:02.625Z,17.17
2018-02-13T21:04:30.368Z,18.67
2018-02-13T21:06:58.462Z,19.07
2018-02-13T21:09:26.292Z,17.02
2018-02-13T21:11:54.062Z,17.17
2018-02-13T21:14:21.798Z,17.50
2018-02-13T21:16:49.399Z,18.17
2018-02-13T21:19:17.216Z,17.33
2018-02-13T21:21:44.838Z,18.67
2018-02-13T21:24:12.676Z,18.27
2018-02-13T21:26:40.430Z,19.27
2018-02-13T21:29:08.361Z,19.07
2018-02-13T21:31:36.377Z,17.60
2018-02-13T21:34:04.047Z,18.47
2018-02-13T21:36:31.846Z,17.97
2018-02-13T21:38:59.605Z,18.37
2018-02-13T21:41:27.304Z,18.83
2018-02-13T21:43:54.948Z,16.53
2018-02-13T21:46:22.556Z,19.60
2018-02-13T21:48:50.393Z,18.90
2018-02-13T21:51:17.984Z,19.07
2018-02-13T21:53:45.772Z,21.20
2018-02-13T21:56:13.931Z,25.37
2018-02-13T21:58:42.385Z,27.13
2018-02-13T22:01:09.985Z,28.98
2018-02-13T22:03:37.621Z,26.80
2018-02-13T22:06:05.257Z,27.47
2018-02-13T22:08:32.853Z,28.80
2018-02-13T22:11:00.645Z,28.10
2018-02-13T22:13:28.414Z,27.93
2018-02-13T22:15:56.037Z,26.27
2018-02-13T22:18:24.215Z,25.90
2018-02-13T22:20:51.785Z,24.07
2018-02-13T22:23:19.549Z,24.37
2018-02-13T22:25:51.198Z,24.70
2018-02-13T22:28:18.813Z,18.43
2018-02-13T22:30:46.405Z,20.57
2018-02-13T22:33:13.976Z,18.33
2018-02-13T22:35:41.557Z,17.80
2018-02-13T22:38:09.179Z,16.63
2018-02-13T22:40:36.777Z,16.37
2018-02-13T22:43:04.389Z,16.20
2018-02-13T22:45:32.154Z,16.90
2018-02-13T22:47:59.928Z,16.97
2018-02-13T22:50:27.582Z,16.80
2018-02-13T22:52:55.386Z,17.20
2018-02-13T22:55:23.019Z,17.73
2018-02-13T22:57:50.604Z,17.70
2018-02-13T23:00:21.344Z,17.67
2018-02-13T23:02:48.907Z,17.13
2018-02-13T23:05:16.665Z,18.07
2018-02-13T23:07:44.261Z,16.97
2018-02-13T23:10:11.887Z,17.97
2018-02-13T23:12:39.697Z,19.30
2018-02-13T23:15:07.477Z,18.93
2018-02-13T23:17:35.243Z,19.13
2018-02-13T23:20:02.846Z,17.77
2018-02-13T23:22:30.657Z,20.20
2018-02-13T23:24:58.431Z,20.07
2018-02-13T23:27:26.200Z,17.70
2018-02-13T23:29:53.961Z,19.50
2018-02-13T23:32:21.554Z,15.83
2018-02-13T23:34:49.286Z,18.20
2018-02-13T23:37:16.884Z,16.13
2018-02-13T23:39:44.488Z,17.43
2018-02-13T23:42:12.095Z,18.00
2018-02-13T23:44:39.793Z,17.97
2018-02-13T23:47:07.397Z,18.17
2018-02-13T23:49:35.001Z,17.53
2018-02-13T23:52:02.650Z,22.77
2018-02-13T23:54:30.529Z,35.70
2018-02-13T23:56:58.101Z,39.80
2018-02-13T23:59:25.747Z,27.10
